Laverock, Pennsylvania
Current Conditions -  °F | °C
As of 6:15 AM on Thursday 18 Dec 2014 (Local Time) from KLOM Reporting Station
Clear Clear  
Wind Chill: -2°   Ceiling: Unl
Heat Index:   Visibility: 10mi
Dew Point: -6°   Wind: 6mph
Humidity: 60%   Direction: 290°WNW
Pressure: 30.01"   Gusts: NA
Location:  40.1012°N, 75.1722°W
Report Text: KLOM 181115Z AUTO 29005KT 10SM CLR 01/M06 A3001 RMK AO1
Loading
Personal Weather Stations






























Interactive Weather Map New forecast layout! Learn more

10-Day Weather Forecast

Advertisements
Track Severe Weather on mobile